Time;durP1;ratioP1;P1;durP2;ratioP2;P2;SDS_P1;SDS_P2;PMS_P1;PMS_P2;Temp;Humidity;BMP_temperature;BMP_pressure;BME280_temperature;BME280_humidity;BME280_pressure;Samples;Min_cycle;Max_cycle;Signal;HPM_P1;HPM_P2
2024/01/14 00:00:10;;;;;;;72.18;35.72;;;;;;;3.05;95.58;101427.19;3611222;39;20058;-67
2024/01/14 00:02:38;;;;;;;70.25;36.30;;;;;;;3.01;95.19;101423.69;3603560;39;20051;-66
2024/01/14 00:05:06;;;;;;;69.15;35.28;;;;;;;3.00;95.20;101413.97;3609375;39;20047;-66
2024/01/14 00:07:31;;;;;;;76.75;37.35;;;;;;;3.00;95.42;101409.53;3612012;39;20051;-67
2024/01/14 00:09:58;;;;;;;72.55;37.28;;;;;;;3.01;95.81;101410.41;3609985;39;20238;-65
2024/01/14 00:12:25;;;;;;;73.95;36.67;;;;;;;2.88;96.13;101388.56;3610274;39;20430;-66
2024/01/14 00:14:51;;;;;;;68.70;35.70;;;;;;;2.99;96.26;101407.81;3609922;39;20056;-66
2024/01/14 00:17:17;;;;;;;72.28;35.97;;;;;;;3.02;96.22;101404.22;3612684;39;20407;-64
2024/01/14 00:19:43;;;;;;;74.97;36.00;;;;;;;2.81;95.55;101364.81;3603185;39;20059;-65
2024/01/14 00:22:08;;;;;;;74.47;36.92;;;;;;;2.86;96.12;101363.84;3608801;39;20051;-65
2024/01/14 00:24:34;;;;;;;69.90;35.85;;;;;;;3.06;96.00;101391.75;3614788;39;20084;-66
2024/01/14 00:27:00;;;;;;;79.32;38.85;;;;;;;3.06;96.37;101402.34;3611248;39;20065;-65
2024/01/14 00:29:25;;;;;;;75.32;36.65;;;;;;;3.08;95.70;101393.47;3612871;39;20051;-66
2024/01/14 00:31:51;;;;;;;73.47;36.72;;;;;;;3.10;95.87;101382.78;3609852;39;20395;-65
2024/01/14 00:34:16;;;;;;;71.60;36.22;;;;;;;3.09;96.58;101389.00;3610598;39;20054;-65
2024/01/14 00:36:42;;;;;;;66.22;33.83;;;;;;;3.10;95.66;101382.78;3612315;39;20354;-65
2024/01/14 00:39:07;;;;;;;70.63;35.58;;;;;;;3.12;95.97;101375.66;3603587;39;20062;-65
2024/01/14 00:41:34;;;;;;;70.65;35.42;;;;;;;3.11;95.62;101369.50;3609455;39;20308;-66
2024/01/14 00:44:00;;;;;;;67.85;35.33;;;;;;;3.06;95.81;101363.38;3599925;39;20567;-66
2024/01/14 00:46:26;;;;;;;65.15;34.42;;;;;;;3.11;95.99;101364.19;3610094;39;20051;-64
2024/01/14 00:48:52;;;;;;;62.20;32.97;;;;;;;3.14;95.43;101369.41;3606288;39;20067;-64
2024/01/14 00:51:17;;;;;;;71.60;35.22;;;;;;;3.13;95.59;101366.78;3606303;39;20300;-65
2024/01/14 00:53:43;;;;;;;69.35;35.65;;;;;;;3.13;96.44;101372.97;3610727;39;20485;-65
2024/01/14 00:56:09;;;;;;;65.60;34.28;;;;;;;3.12;96.31;101363.25;3608486;39;20277;-65
2024/01/14 00:58:34;;;;;;;64.65;34.38;;;;;;;3.12;96.27;101359.72;3610320;39;20124;-65
2024/01/14 01:01:00;;;;;;;64.93;33.25;;;;;;;3.14;96.35;101358.78;3607269;39;20069;-65
2024/01/14 01:03:25;;;;;;;70.00;34.70;;;;;;;3.14;95.52;101355.22;3609130;39;20051;-65
2024/01/14 01:05:54;;;;;;;67.00;33.95;;;;;;;3.14;96.26;101348.16;3612406;39;20051;-66
2024/01/14 01:08:19;;;;;;;71.43;35.15;;;;;;;3.17;96.11;101355.16;3610198;39;20128;-65
2024/01/14 01:10:45;;;;;;;71.10;34.92;;;;;;;3.15;96.15;101357.00;3610823;39;20417;-67
2024/01/14 01:13:11;;;;;;;72.60;35.03;;;;;;;3.14;96.22;101348.16;3609003;39;20063;-66
2024/01/14 01:15:37;;;;;;;68.13;35.10;;;;;;;3.14;96.01;101336.63;3612563;39;20059;-66
2024/01/14 01:18:03;;;;;;;62.63;32.28;;;;;;;3.18;95.60;101339.22;3606417;39;20284;-67
2024/01/14 01:20:29;;;;;;;68.35;35.72;;;;;;;3.15;95.26;101336.63;3608524;39;20355;-67
2024/01/14 01:22:55;;;;;;;62.33;33.53;;;;;;;3.15;95.38;101325.13;3607723;39;20043;-66
2024/01/14 01:25:21;;;;;;;67.10;35.45;;;;;;;3.09;95.80;101317.31;3607695;39;20388;-66
2024/01/14 01:27:46;;;;;;;57.83;31.75;;;;;;;3.08;95.74;101312.91;3609006;39;20059;-66
2024/01/14 01:30:12;;;;;;;60.20;33.17;;;;;;;3.16;95.33;101329.53;3605938;39;20121;-67
2024/01/14 01:32:38;;;;;;;69.07;35.00;;;;;;;3.07;95.91;101314.66;3610429;39;20054;-66
2024/01/14 01:35:04;;;;;;;68.10;35.40;;;;;;;3.17;95.50;101332.16;3606021;39;20054;-66
2024/01/14 01:37:30;;;;;;;71.85;35.50;;;;;;;3.19;95.33;101321.47;3607651;39;20057;-66
2024/01/14 01:39:56;;;;;;;69.00;34.70;;;;;;;3.19;96.10;101318.81;3600076;39;20047;-66
2024/01/14 01:42:22;;;;;;;65.32;33.63;;;;;;;3.02;95.40;101290.88;3609424;39;20421;-66
2024/01/14 01:44:47;;;;;;;68.65;35.00;;;;;;;3.19;95.72;101322.34;3605483;39;20062;-65
2024/01/14 01:47:16;;;;;;;72.47;35.42;;;;;;;3.16;95.18;101319.75;3608081;39;20043;-66
2024/01/14 01:49:43;;;;;;;69.70;35.22;;;;;;;3.12;95.84;101319.88;3607847;39;20105;-65
2024/01/14 01:52:11;;;;;;;65.10;35.75;;;;;;;3.13;95.54;101319.84;3597260;39;20070;-66
2024/01/14 01:54:40;;;;;;;63.08;34.00;;;;;;;3.17;94.86;101310.00;3608157;39;20296;-66
2024/01/14 01:57:07;;;;;;;65.85;34.80;;;;;;;3.15;95.08;101312.72;3611320;39;20063;-65
2024/01/14 01:59:34;;;;;;;72.32;35.15;;;;;;;3.11;95.93;101321.69;3609014;39;20047;-65
2024/01/14 02:02:01;;;;;;;69.40;34.47;;;;;;;3.11;96.03;101318.13;3609255;39;20043;-66
2024/01/14 02:04:28;;;;;;;69.00;33.83;;;;;;;3.13;95.36;101308.34;3607706;39;20120;-67
2024/01/14 02:06:55;;;;;;;69.68;35.53;;;;;;;3.10;95.53;101308.41;3605783;39;20280;-65
2024/01/14 02:09:21;;;;;;;70.10;36.20;;;;;;;3.09;96.24;101309.34;3609726;39;20390;-66
2024/01/14 02:11:47;;;;;;;69.45;34.53;;;;;;;3.07;95.74;101300.50;3609627;39;20391;-65
2024/01/14 02:14:13;;;;;;;76.03;34.70;;;;;;;2.87;95.65;101270.00;3610965;39;20102;-66
2024/01/14 02:16:39;;;;;;;67.10;34.90;;;;;;;2.96;95.40;101280.41;3609839;39;20391;-65
2024/01/14 02:19:04;;;;;;;68.18;34.13;;;;;;;3.00;95.62;101287.38;3607979;39;20059;-66
2024/01/14 02:21:39;;;;;;;70.82;35.60;;;;;;;2.89;95.36;101268.19;3605491;39;20422;-65
2024/01/14 02:24:34;;;;;;;63.72;33.97;;;;;;;3.03;96.29;101302.38;3605201;39;20445;-65
2024/01/14 02:27:00;;;;;;;69.88;33.97;;;;;;;2.98;95.96;101301.59;3606969;39;20063;-65
2024/01/14 02:29:28;;;;;;;65.38;34.65;;;;;;;2.99;96.12;101303.38;3603912;39;20311;-65
2024/01/14 02:31:55;;;;;;;68.10;34.10;;;;;;;2.90;96.20;101280.53;3605578;39;20085;-65
2024/01/14 02:34:20;;;;;;;76.78;36.67;;;;;;;2.94;96.16;101290.16;3608637;39;20066;-65
2024/01/14 02:36:46;;;;;;;72.35;36.25;;;;;;;3.00;96.56;101290.03;3608456;39;20381;-64
2024/01/14 02:39:12;;;;;;;69.32;35.13;;;;;;;3.00;96.44;101287.38;3609074;39;20390;-65
2024/01/14 02:41:38;;;;;;;70.60;36.45;;;;;;;3.01;96.25;101291.81;3606478;39;20310;-65
2024/01/14 02:44:04;;;;;;;72.95;36.25;;;;;;;3.00;95.96;101281.19;3608239;39;20067;-66
2024/01/14 02:46:30;;;;;;;74.47;36.22;;;;;;;2.78;95.98;101243.66;3607186;39;20052;-65
2024/01/14 02:48:57;;;;;;;72.82;35.65;;;;;;;2.99;95.94;101274.16;3610461;39;20322;-65
2024/01/14 02:51:23;;;;;;;71.47;36.25;;;;;;;2.98;96.03;101270.63;3607783;39;20070;-65
2024/01/14 02:53:49;;;;;;;67.32;35.33;;;;;;;2.98;95.39;101262.66;3608742;39;20043;-67
2024/01/14 02:56:15;;;;;;;72.45;36.38;;;;;;;2.95;94.83;101249.47;3605617;39;20062;-64
2024/01/14 02:58:41;;;;;;;64.72;35.15;;;;;;;2.97;94.94;101244.09;3606694;39;20379;-65
2024/01/14 03:01:07;;;;;;;60.00;32.75;;;;;;;2.98;94.94;101243.16;3606974;39;20047;-66
2024/01/14 03:03:32;;;;;;;66.45;33.83;;;;;;;2.87;95.41;101247.88;3607554;39;20058;-65
2024/01/14 03:05:58;;;;;;;59.33;32.80;;;;;;;2.91;95.59;101244.22;3606288;39;20096;-66
2024/01/14 03:08:23;;;;;;;61.08;32.50;;;;;;;2.84;95.13;101232.88;3606682;39;20059;-63
2024/01/14 03:10:49;;;;;;;63.33;35.08;;;;;;;2.83;94.82;101235.59;3606443;39;20058;-64
2024/01/14 03:13:16;;;;;;;58.20;31.30;;;;;;;2.74;95.05;101223.41;3606380;39;20295;-64
2024/01/14 03:15:43;;;;;;;63.05;32.83;;;;;;;2.71;94.60;101219.03;3607173;39;20053;-67
2024/01/14 03:18:08;;;;;;;60.20;32.33;;;;;;;2.76;95.02;101221.59;3606799;39;20062;-66
2024/01/14 03:20:34;;;;;;;64.57;33.75;;;;;;;2.74;95.28;101223.41;3608053;39;20058;-66
2024/01/14 03:23:00;;;;;;;61.55;32.00;;;;;;;2.77;95.65;101220.69;3609218;39;20059;-65
2024/01/14 03:25:25;;;;;;;63.47;33.55;;;;;;;2.70;95.66;101213.78;3604839;39;20422;-65
2024/01/14 03:27:51;;;;;;;62.22;32.30;;;;;;;2.73;95.87;101214.56;3605005;39;20054;-65
2024/01/14 03:30:18;;;;;;;60.55;31.70;;;;;;;2.73;94.86;101208.38;3606174;39;20051;-65
2024/01/14 03:32:43;;;;;;;59.95;32.17;;;;;;;2.22;95.60;101124.66;3608543;39;20063;-64
2024/01/14 03:35:09;;;;;;;60.10;31.63;;;;;;;2.66;95.02;101207.63;3606164;39;20078;-65
2024/01/14 03:37:35;;;;;;;62.22;33.88;;;;;;;2.67;94.92;101203.22;3605346;39;20051;-65
2024/01/14 03:40:01;;;;;;;65.70;33.78;;;;;;;2.64;95.19;101204.16;3604173;39;20074;-65
2024/01/14 03:42:27;;;;;;;58.55;31.63;;;;;;;2.68;95.65;101197.00;3597811;39;20415;-66
2024/01/14 03:44:52;;;;;;;61.38;31.00;;;;;;;2.67;95.60;101197.91;3605357;39;20062;-66
2024/01/14 03:47:18;;;;;;;61.42;30.40;;;;;;;2.69;96.04;101202.25;3610325;39;20054;-66
2024/01/14 03:49:44;;;;;;;59.30;30.92;;;;;;;2.68;95.47;101194.34;3607204;39;20046;-66
2024/01/14 03:52:09;;;;;;;56.85;29.95;;;;;;;2.69;95.48;101193.41;3604016;39;20073;-66
2024/01/14 03:54:35;;;;;;;55.80;29.23;;;;;;;2.68;95.26;101191.69;3609224;39;20057;-65
2024/01/14 03:57:00;;;;;;;54.95;29.65;;;;;;;2.72;94.96;101196.00;3607922;39;20327;-65
2024/01/14 03:59:26;;;;;;;55.08;29.48;;;;;;;2.73;94.88;101187.16;3610085;39;20054;-64
2024/01/14 04:01:51;;;;;;;58.95;28.63;;;;;;;2.63;95.06;101177.63;3608659;39;20078;-65
2024/01/14 04:04:17;;;;;;;59.25;29.13;;;;;;;2.68;94.93;101191.69;3606879;39;20059;-66
2024/01/14 04:06:43;;;;;;;55.22;29.33;;;;;;;2.67;95.25;101188.16;3611692;39;20066;-66
2024/01/14 04:09:10;;;;;;;53.00;29.42;;;;;;;2.67;95.13;101180.19;3608829;39;20055;-66
2024/01/14 04:11:35;;;;;;;57.72;30.42;;;;;;;2.68;95.70;101183.72;3607764;39;20059;-66
2024/01/14 04:14:01;;;;;;;56.17;30.65;;;;;;;2.63;95.28;101172.34;3610634;39;20058;-65
2024/01/14 04:16:26;;;;;;;52.72;28.83;;;;;;;2.67;95.38;101182.00;3608215;39;20055;-66
2024/01/14 04:18:52;;;;;;;54.65;29.98;;;;;;;2.67;95.40;101176.69;3605346;39;20156;-65
2024/01/14 04:21:22;;;;;;;60.70;30.50;;;;;;;2.68;95.40;101167.81;3600622;39;20055;-65
2024/01/14 04:23:49;;;;;;;61.72;30.00;;;;;;;2.64;94.70;101174.97;3610740;39;20151;-66
2024/01/14 04:26:18;;;;;;;58.20;30.60;;;;;;;2.49;95.06;101152.31;3611360;39;20317;-65
2024/01/14 04:28:44;;;;;;;57.53;29.00;;;;;;;2.55;94.45;101161.91;3608972;39;20059;-66
2024/01/14 04:31:10;;;;;;;56.15;30.27;;;;;;;2.62;95.24;101173.25;3608626;39;20073;-66
2024/01/14 04:33:36;;;;;;;56.40;28.50;;;;;;;2.61;94.89;101172.38;3609831;39;20056;-66
2024/01/14 04:36:02;;;;;;;53.95;28.38;;;;;;;2.59;94.35;101175.97;3605750;39;20295;-66
2024/01/14 04:38:27;;;;;;;49.85;27.13;;;;;;;2.61;95.00;101179.47;3608656;39;20079;-66
2024/01/14 04:40:53;;;;;;;54.42;28.35;;;;;;;2.56;94.97;101166.28;3608466;39;20059;-65
2024/01/14 04:43:19;;;;;;;47.90;26.63;;;;;;;2.61;94.48;101167.06;3608998;39;20074;-65
2024/01/14 04:45:44;;;;;;;51.03;28.00;;;;;;;2.60;94.97;101164.44;3610829;39;20061;-66
2024/01/14 04:48:10;;;;;;;52.20;27.67;;;;;;;2.60;94.88;101159.13;3607127;39;20375;-65
2024/01/14 04:50:39;;;;;;;48.20;27.65;;;;;;;2.60;94.74;101164.44;3607752;39;20065;-66
2024/01/14 04:53:05;;;;;;;49.83;26.02;;;;;;;2.58;94.98;101151.22;3597969;39;20046;-65
2024/01/14 04:55:31;;;;;;;47.85;26.30;;;;;;;2.55;94.18;101161.91;3610683;39;20055;-66
2024/01/14 04:57:57;;;;;;;49.67;25.48;;;;;;;2.34;95.00;101120.81;3609382;39;20177;-65
2024/01/14 05:00:23;;;;;;;46.38;25.63;;;;;;;2.56;94.20;101139.75;3609115;39;20058;-66
2024/01/14 05:02:49;;;;;;;47.38;25.85;;;;;;;2.54;95.32;101145.13;3610853;39;20047;-66
2024/01/14 05:05:15;;;;;;;43.00;24.52;;;;;;;2.53;94.17;101143.34;3609829;39;20062;-66
2024/01/14 05:07:41;;;;;;;39.85;22.33;;;;;;;2.53;94.37;101138.06;3606634;39;20327;-64
2024/01/14 05:10:08;;;;;;;41.10;22.58;;;;;;;2.04;93.76;101054.34;3608302;39;20042;-65
2024/01/14 05:12:34;;;;;;;43.55;23.75;;;;;;;2.42;94.25;101124.19;3608004;39;20063;-65
2024/01/14 05:15:00;;;;;;;41.92;23.60;;;;;;;2.48;93.88;101129.34;3610242;39;20051;-66
2024/01/14 05:17:26;;;;;;;39.75;23.00;;;;;;;2.50;93.65;101119.53;3609880;39;20043;-66
2024/01/14 05:19:52;;;;;;;40.47;22.98;;;;;;;2.44;94.02;101111.75;3608622;39;20058;-66
2024/01/14 05:22:18;;;;;;;41.58;23.38;;;;;;;2.46;94.27;101120.53;3606803;39;20051;-65
2024/01/14 05:24:44;;;;;;;43.95;24.38;;;;;;;2.44;94.28;101119.72;3607056;39;20079;-66
2024/01/14 05:27:12;;;;;;;39.22;23.50;;;;;;;2.41;94.38;101111.84;3607501;39;20059;-65
2024/01/14 05:29:41;;;;;;;43.15;26.02;;;;;;;2.41;93.52;101106.53;3607913;39;20450;-66
2024/01/14 05:32:08;;;;;;;46.42;24.58;;;;;;;2.43;93.83;101112.66;3607131;39;20058;-66
2024/01/14 05:34:34;;;;;;;47.13;25.25;;;;;;;2.43;94.41;101114.44;3609196;39;20059;-64
2024/01/14 05:37:01;;;;;;;42.90;24.15;;;;;;;2.45;94.00;101109.97;3606942;39;20296;-65
2024/01/14 05:39:27;;;;;;;48.13;25.38;;;;;;;2.42;93.51;101105.59;3609937;39;20061;-65
2024/01/14 05:41:52;;;;;;;48.30;24.23;;;;;;;2.43;93.59;101104.69;3609861;39;20063;-66
2024/01/14 05:44:18;;;;;;;47.58;26.05;;;;;;;2.42;93.78;101095.00;3607617;39;20144;-64
2024/01/14 05:46:44;;;;;;;50.33;25.33;;;;;;;2.41;93.30;101095.00;3606968;39;20067;-66
2024/01/14 05:49:10;;;;;;;47.28;24.92;;;;;;;2.40;93.69;101094.16;3608570;39;20095;-65
2024/01/14 05:51:36;;;;;;;49.45;24.83;;;;;;;2.39;94.14;101099.50;3606181;39;20049;-66
2024/01/14 05:54:03;;;;;;;49.80;26.13;;;;;;;2.39;94.47;101102.16;3610019;39;20090;-66
2024/01/14 05:56:29;;;;;;;51.05;25.90;;;;;;;2.32;94.46;101089.03;3608555;39;20387;-66
2024/01/14 05:58:55;;;;;;;52.47;26.15;;;;;;;2.38;94.36;101087.13;3611331;39;20288;-66
2024/01/14 06:01:22;;;;;;;45.38;24.23;;;;;;;2.35;94.21;101085.44;3611327;39;20185;-67
2024/01/14 06:03:48;;;;;;;45.38;26.13;;;;;;;2.41;93.79;101093.25;3609742;39;20060;-66
2024/01/14 06:06:14;;;;;;;48.67;25.55;;;;;;;2.17;93.70;101043.44;3611102;39;20321;-66
2024/01/14 06:08:42;;;;;;;51.50;27.15;;;;;;;2.39;93.90;101080.94;3607311;39;20063;-67
2024/01/14 06:11:07;;;;;;;49.15;26.70;;;;;;;2.37;94.58;101067.69;3609708;39;20612;-66
2024/01/14 06:13:33;;;;;;;47.72;25.85;;;;;;;2.36;93.62;101065.97;3611747;39;20087;-67
2024/01/14 06:16:01;;;;;;;47.13;26.00;;;;;;;2.35;94.10;101071.28;3611300;39;20260;-67
2024/01/14 06:18:28;;;;;;;48.42;25.38;;;;;;;2.36;93.93;101065.97;3610187;39;20385;-66
2024/01/14 06:21:00;;;;;;;48.97;25.90;;;;;;;2.35;93.93;101064.22;3609055;39;20449;-67
2024/01/14 06:23:27;;;;;;;48.00;25.08;;;;;;;2.42;94.23;101071.13;3609940;39;20075;-67
2024/01/14 06:25:53;;;;;;;47.83;25.85;;;;;;;2.36;93.70;101058.00;3610525;39;20050;-68
2024/01/14 06:28:19;;;;;;;45.20;24.10;;;;;;;2.40;94.04;101057.00;3610042;39;22154;-68
2024/01/14 06:30:44;;;;;;;46.80;24.38;;;;;;;2.40;93.47;101056.13;3610346;39;20051;-69
2024/01/14 06:33:12;;;;;;;48.03;25.55;;;;;;;2.41;93.06;101050.81;3607523;39;20322;-67
2024/01/14 06:35:37;;;;;;;44.05;23.08;;;;;;;2.33;93.62;101031.53;3609415;39;20500;-67
2024/01/14 06:38:03;;;;;;;44.72;25.27;;;;;;;2.43;93.74;101051.63;3610800;39;20064;-68
2024/01/14 06:40:29;;;;;;;48.95;23.55;;;;;;;2.40;93.89;101048.19;3608833;39;20477;-67
2024/01/14 06:42:54;;;;;;;42.63;23.67;;;;;;;2.07;93.04;100989.75;3608510;39;20054;-67
2024/01/14 06:45:20;;;;;;;42.30;23.02;;;;;;;2.44;93.43;101044.53;3610470;39;20074;-68
2024/01/14 06:47:46;;;;;;;44.65;23.20;;;;;;;2.42;92.99;101041.94;3612181;39;20043;-68
2024/01/14 06:50:13;;;;;;;41.58;22.40;;;;;;;2.36;92.85;101031.47;3610135;39;20046;-69
2024/01/14 06:52:39;;;;;;;40.55;23.60;;;;;;;2.41;93.36;101041.97;3601092;39;20091;-68
2024/01/14 06:55:05;;;;;;;44.33;24.23;;;;;;;2.40;92.92;101037.56;3610019;39;20111;-67
2024/01/14 06:57:32;;;;;;;39.42;22.75;;;;;;;2.39;93.29;101034.06;3610541;39;20063;-67
2024/01/14 07:00:05;;;;;;;40.75;23.23;;;;;;;2.39;92.10;101017.28;3612390;39;20038;-68
2024/01/14 07:02:31;;;;;;;43.05;23.80;;;;;;;2.41;92.54;101021.63;3612366;39;20047;-68
2024/01/14 07:04:57;;;;;;;41.80;22.98;;;;;;;2.38;92.16;101021.72;3613041;39;20081;-69
2024/01/14 07:07:23;;;;;;;40.92;23.52;;;;;;;2.34;92.98;101020.03;3609883;39;20059;-68
2024/01/14 07:09:48;;;;;;;43.75;24.52;;;;;;;2.34;92.99;101020.03;3612673;39;20420;-67
2024/01/14 07:12:14;;;;;;;46.00;23.30;;;;;;;2.32;93.80;101017.41;3611968;39;20043;-67
2024/01/14 07:14:40;;;;;;;43.60;22.40;;;;;;;2.20;92.91;100990.34;3610001;39;20102;-68
2024/01/14 07:17:07;;;;;;;44.53;24.23;;;;;;;2.36;93.88;101020.88;3612034;39;20298;-68
2024/01/14 07:19:35;;;;;;;40.85;22.95;;;;;;;2.36;93.42;101015.56;3609254;39;20090;-67
2024/01/14 07:22:02;;;;;;;43.70;22.73;;;;;;;2.37;92.83;101027.91;3610259;39;20058;-68
2024/01/14 07:24:28;;;;;;;42.85;23.40;;;;;;;2.16;92.87;100991.28;3612101;39;20051;-69
2024/01/14 07:26:53;;;;;;;50.33;25.77;;;;;;;2.38;92.20;101027.00;3609161;39;20334;-69
2024/01/14 07:29:19;;;;;;;46.30;24.15;;;;;;;2.35;92.41;101026.19;3606695;39;20303;-69
2024/01/14 07:31:44;;;;;;;49.80;26.20;;;;;;;2.32;93.02;101017.41;3609711;39;20047;-69
2024/01/14 07:34:10;;;;;;;50.40;26.02;;;;;;;2.32;93.18;101016.56;3607258;39;20070;-68
2024/01/14 07:36:36;;;;;;;43.45;24.63;;;;;;;2.35;93.07;101021.78;3608881;39;20054;-68
2024/01/14 07:39:03;;;;;;;50.67;25.92;;;;;;;2.33;92.86;101018.28;3609553;39;20059;-68
2024/01/14 07:41:28;;;;;;;49.42;25.52;;;;;;;2.29;93.54;101016.63;3606092;39;20058;-67
2024/01/14 07:43:54;;;;;;;48.40;24.88;;;;;;;2.38;92.86;101016.41;3606695;39;20253;-70
2024/01/14 07:46:20;;;;;;;49.00;25.88;;;;;;;2.33;92.94;101016.50;3609263;39;20065;-69
2024/01/14 07:48:46;;;;;;;42.78;22.80;;;;;;;2.33;93.58;101002.38;3605885;39;20059;-68
2024/01/14 07:51:11;;;;;;;43.30;23.00;;;;;;;1.90;93.04;100939.78;3611115;39;20055;-68
2024/01/14 07:53:37;;;;;;;42.30;23.50;;;;;;;2.33;93.57;101021.81;3611751;39;20066;-68
2024/01/14 07:56:03;;;;;;;41.33;23.42;;;;;;;2.35;92.85;101011.16;3608822;39;20054;-68
2024/01/14 07:58:30;;;;;;;44.38;23.73;;;;;;;2.34;92.64;101014.72;3612185;39;20039;-67
2024/01/14 08:00:55;;;;;;;41.30;21.95;;;;;;;2.35;93.23;101011.16;3610153;39;20307;-68
2024/01/14 08:03:21;;;;;;;37.20;21.42;;;;;;;2.24;92.54;100995.50;3611243;39;20057;-69
2024/01/14 08:05:47;;;;;;;41.63;22.13;;;;;;;2.33;93.16;101003.25;3611749;39;20059;-68
2024/01/14 08:08:13;;;;;;;38.85;20.65;;;;;;;2.35;92.56;101008.53;3610198;39;20058;-69
2024/01/14 08:10:39;;;;;;;43.35;22.27;;;;;;;2.32;92.80;101004.16;3612470;39;20379;-69
2024/01/14 08:13:05;;;;;;;39.55;22.27;;;;;;;2.38;92.89;101008.44;3611588;39;20043;-68
2024/01/14 08:15:30;;;;;;;36.78;20.30;;;;;;;2.43;92.88;101009.19;3608819;39;20055;-68
2024/01/14 08:17:56;;;;;;;35.40;20.60;;;;;;;2.42;91.89;101007.44;3605118;39;20055;-68
2024/01/14 08:20:22;;;;;;;36.92;20.27;;;;;;;2.39;92.72;100991.59;3610709;39;20050;-67
2024/01/14 08:22:48;;;;;;;38.58;21.92;;;;;;;2.39;92.33;101001.34;3609418;39;20435;-67
2024/01/14 08:25:14;;;;;;;39.83;22.65;;;;;;;2.44;92.64;101008.28;3610887;39;20260;-69
2024/01/14 08:27:40;;;;;;;37.33;20.92;;;;;;;2.46;93.07;101003.81;3609907;39;20062;-69
2024/01/14 08:30:07;;;;;;;38.25;21.10;;;;;;;2.47;92.17;101010.84;3612317;39;20356;-69
2024/01/14 08:32:33;;;;;;;34.65;21.33;;;;;;;2.47;92.90;101013.50;3609474;39;20323;-68
2024/01/14 08:34:59;;;;;;;36.88;20.77;;;;;;;2.47;92.35;101009.97;3611253;39;20059;-69
2024/01/14 08:37:29;;;;;;;36.85;21.70;;;;;;;2.45;92.47;101012.69;3611323;39;20062;-70
2024/01/14 08:39:55;;;;;;;41.80;23.15;;;;;;;2.48;93.16;101015.25;3602197;39;20039;-71
2024/01/14 08:42:20;;;;;;;40.28;22.20;;;;;;;2.52;93.04;101008.94;3610820;39;20043;-68
2024/01/14 08:44:47;;;;;;;42.10;23.02;;;;;;;2.51;92.55;101003.69;3611789;39;20050;-69
2024/01/14 08:47:13;;;;;;;41.17;22.15;;;;;;;2.49;92.46;100998.41;3607428;39;20052;-69
2024/01/14 08:49:40;;;;;;;41.10;21.65;;;;;;;2.52;93.00;101003.66;3610818;39;20054;-69
2024/01/14 08:52:07;;;;;;;45.17;24.02;;;;;;;2.52;93.10;101003.66;3605301;39;20288;-69
2024/01/14 08:54:37;;;;;;;41.00;22.05;;;;;;;2.53;92.56;100992.09;3606810;39;20100;-68
2024/01/14 08:57:03;;;;;;;43.20;21.92;;;;;;;2.56;92.99;101002.66;3607422;39;20384;-69
2024/01/14 08:59:29;;;;;;;38.88;21.25;;;;;;;2.58;92.97;100996.44;3607393;39;20075;-70
2024/01/14 09:01:54;;;;;;;39.10;22.17;;;;;;;2.59;92.16;100992.88;3612345;39;20089;-70
2024/01/14 09:04:20;;;;;;;38.88;21.98;;;;;;;2.57;92.83;101003.53;3611145;39;20447;-69
2024/01/14 09:06:46;;;;;;;38.42;21.67;;;;;;;2.58;92.09;101007.06;3607888;39;20410;-69
2024/01/14 09:09:12;;;;;;;35.08;20.98;;;;;;;2.62;91.97;100998.09;3602943;39;20063;-69
2024/01/14 09:11:38;;;;;;;34.33;20.08;;;;;;;2.61;91.49;100997.22;3603470;39;20173;-71
2024/01/14 09:14:05;;;;;;;39.38;22.30;;;;;;;2.60;92.06;100991.94;3606923;39;21309;-70
2024/01/14 09:16:31;;;;;;;39.28;21.83;;;;;;;2.55;91.95;101003.56;3611314;39;20478;-70
2024/01/14 09:18:56;;;;;;;37.58;22.05;;;;;;;2.54;91.81;100991.22;3612112;39;20059;-69
2024/01/14 09:21:22;;;;;;;41.20;22.20;;;;;;;2.53;91.13;100981.50;3609751;39;20052;-69
2024/01/14 09:23:48;;;;;;;41.15;22.70;;;;;;;2.33;92.03;100944.88;3611981;39;20058;-69
2024/01/14 09:26:13;;;;;;;41.80;23.23;;;;;;;2.52;92.74;100971.81;3610632;39;20071;-69
2024/01/14 09:28:39;;;;;;;40.55;22.08;;;;;;;2.50;92.56;100968.31;3610204;39;20082;-69
2024/01/14 09:31:06;;;;;;;41.20;22.70;;;;;;;2.58;91.36;100981.38;3612338;39;20055;-69
2024/01/14 09:33:32;;;;;;;39.70;22.88;;;;;;;2.56;92.53;100972.59;3612085;39;20742;-69
2024/01/14 09:36:08;;;;;;;44.55;24.42;;;;;;;2.43;91.76;100950.81;3612220;39;20054;-70
2024/01/14 09:38:35;;;;;;;46.30;23.42;;;;;;;2.58;92.10;100972.56;3610539;39;20184;-69
2024/01/14 09:41:32;;;;;;;44.15;23.75;;;;;;;2.63;91.52;100973.28;3611986;39;20042;-70
2024/01/14 09:44:01;;;;;;;42.25;23.85;;;;;;;2.63;92.63;100962.69;3610841;39;20062;-68
2024/01/14 09:46:27;;;;;;;40.92;23.92;;;;;;;2.71;91.93;100960.69;3610064;39;20059;-69
2024/01/14 09:48:55;;;;;;;43.63;24.23;;;;;;;2.48;92.16;100933.00;3610215;39;20131;-70
2024/01/14 09:51:31;;;;;;;45.38;24.42;;;;;;;2.70;92.05;100964.28;3600470;39;20356;-70
2024/01/14 09:54:01;;;;;;;41.47;22.83;;;;;;;2.71;91.06;100960.69;3611249;39;20116;-70
2024/01/14 09:56:32;;;;;;;42.35;23.15;;;;;;;2.73;91.25;100966.84;3610348;39;20063;-69
2024/01/14 09:59:00;;;;;;;39.40;22.38;;;;;;;2.73;90.82;100948.28;3612553;39;20047;-70
2024/01/14 10:01:31;;;;;;;43.17;24.30;;;;;;;2.77;91.48;100957.88;3613095;39;20128;-70
2024/01/14 10:04:01;;;;;;;39.05;21.90;;;;;;;2.78;91.17;100960.47;3613161;39;20054;-69
2024/01/14 10:06:28;;;;;;;41.05;22.08;;;;;;;2.78;91.23;100952.50;3609250;39;20560;-72
2024/01/14 10:08:57;;;;;;;42.33;24.23;;;;;;;2.78;90.82;100956.97;3613135;39;20067;-70
2024/01/14 10:11:23;;;;;;;43.95;24.70;;;;;;;2.82;90.60;100958.59;3610664;39;20058;-70
2024/01/14 10:13:49;;;;;;;43.70;23.08;;;;;;;2.79;90.75;100964.00;3611742;39;20046;-70
2024/01/14 10:16:16;;;;;;;39.00;23.45;;;;;;;2.67;90.84;100940.47;3612072;39;20055;-69
2024/01/14 10:18:41;;;;;;;42.72;23.15;;;;;;;2.79;91.57;100959.59;3613760;39;20046;-70
2024/01/14 10:21:09;;;;;;;44.35;22.52;;;;;;;2.85;90.95;100952.34;3610728;39;20054;-69
2024/01/14 10:23:36;;;;;;;42.50;23.27;;;;;;;2.79;91.21;100948.97;3609985;39;20047;-69
2024/01/14 10:26:02;;;;;;;41.92;22.73;;;;;;;2.88;90.56;100937.19;3610793;39;20051;-69
2024/01/14 10:28:35;;;;;;;41.53;22.35;;;;;;;2.85;91.15;100926.66;3609683;39;20319;-69
2024/01/14 10:31:08;;;;;;;40.00;22.23;;;;;;;2.85;90.19;100934.63;3608768;39;20051;-69
2024/01/14 10:33:35;;;;;;;36.75;21.10;;;;;;;2.90;91.20;100930.06;3610272;39;20062;-69
2024/01/14 10:36:09;;;;;;;37.03;20.80;;;;;;;2.89;90.29;100927.47;3612358;39;20059;-71
2024/01/14 10:38:36;;;;;;;36.42;20.95;;;;;;;2.86;90.69;100912.50;3601802;39;20063;-69
2024/01/14 10:41:03;;;;;;;37.08;21.33;;;;;;;2.90;89.91;100914.16;3610881;39;20051;-69
2024/01/14 10:43:29;;;;;;;35.90;20.25;;;;;;;2.88;90.89;100915.97;3611028;39;20051;-69
2024/01/14 10:45:57;;;;;;;36.35;21.58;;;;;;;2.51;89.89;100853.31;3612177;39;20052;-69
2024/01/14 10:48:28;;;;;;;38.17;22.35;;;;;;;2.66;89.80;100883.84;3610014;39;20062;-69
2024/01/14 10:50:58;;;;;;;38.13;21.48;;;;;;;2.82;89.71;100909.97;3610402;39;20085;-69
2024/01/14 10:53:51;;;;;;;39.55;21.88;;;;;;;2.82;89.87;100900.22;3599969;39;20628;-69
2024/01/14 10:56:34;;;;;;;37.85;22.27;;;;;;;2.74;90.71;100892.47;3608305;39;20051;-71
2024/01/14 10:59:03;;;;;;;38.45;22.08;;;;;;;2.79;91.18;100895.88;3609929;39;20059;-69
2024/01/14 11:01:36;;;;;;;39.60;21.45;;;;;;;2.58;90.55;100861.13;3606550;39;20066;-69
2024/01/14 11:04:04;;;;;;;37.55;20.80;;;;;;;2.76;90.70;100887.13;3609200;39;20290;-69
2024/01/14 11:06:32;;;;;;;38.08;21.55;;;;;;;2.71;90.18;100878.41;3610745;39;20055;-71
2024/01/14 11:08:58;;;;;;;40.65;21.83;;;;;;;2.64;90.30;100880.38;3610357;39;20054;-71
2024/01/14 11:11:41;;;;;;;39.83;22.17;;;;;;;2.06;91.12;100776.78;3611376;39;20051;-70
2024/01/14 11:14:32;;;;;;;37.65;20.95;;;;;;;2.56;91.28;100855.84;3610207;39;20059;-71